• Join FlightAware (Why Join?)
  • Login
  • US Flag 
06:55AM EDT


 

Airport Tracker/Info


-or-


 

Live Flight TrackerFlight Track Log ✈ UCA3598 ✈ 18-Sep-2013 ✈ KIAD - KBGM

Flight Track Log - Related Links

Times and Time Zones

All times are in EDT time to prevent confusion due to time zone crossing. See the UCA3598 flight status page for this flight to view local times or setup timezone preferences in your user account.

Time Position Orientation Groundspeed Altitude Reporting Facility
EDT Latitude Longitude Course Direction KTS MPH feet Rate Location/Type
10:11PM 39.2836 -77.3142 North  Level Estimated
10:12PM 39.3508 -77.2849 North  Level Estimated
10:13PM 39.4179 -77.2555 North  Level Estimated
10:14PM 39.4836 -77.2903 338° Northwest  Level FlightAware Approximate
10:15PM 39.5504 -77.2595 North  Level Estimated
10:16PM 39.6172 -77.2286 North  Level Estimated
10:17PM 39.6841 -77.1977 North  Level Estimated
10:18PM 39.7502 -77.2309 339° North  Level FlightAware Approximate
10:19PM 39.8163 -77.2643 339° North  Level FlightAware Approximate
10:20PM 39.8823 -77.2302 North  Level Estimated
10:21PM 39.9510 -77.2532 346° North  Level FlightAware Approximate
10:22PM 40.0196 -77.2763 346° North  Level FlightAware Approximate
10:23PM 40.0883 -77.2994 346° North  Level FlightAware Approximate
10:23PM 38.9500 -77.5000 13° North 139 160 1,600  Level Potomac TRACON
10:24PM 40.1570 -77.3226 346° North  Level FlightAware Approximate
10:25PM 40.2209 -77.2822 North  Level Estimated
10:25PM 39.0789 -77.5517 343° North 205 236 4,300  Level Washington Center
10:26PM 40.2847 -77.2417 North  Level Estimated
10:26PM 39.1308 -77.5556 357° North 205 236 5,400  Level Washington Center
10:27PM 40.3522 -77.2703 342° North  Level FlightAware Approximate
10:27PM 39.1869 -77.5653 352° North 205 236 6,700  Level Washington Center
10:28PM 40.4153 -77.2278 13° North  Level Estimated
10:28PM 39.2431 -77.5747 353° North 200 230 7,900  Level Washington Center
10:29PM 39.3014 -77.5764 359° North 200 230 9,000 1,080 Climbing Washington Center
10:30PM 39.3617 -77.5833 355° North 205 236 10,100 1,380 Climbing Washington Center
10:31PM 39.4183 -77.5606 17° North 205 236 11,800 1,620 Climbing Washington Center
10:32PM 39.4667 -77.5378 20° North 195 224 13,500 1,440 Climbing Washington Center
10:33PM 39.5150 -77.5150 20° North 184 212 14,700 1,140 Climbing Washington Center
10:35PM 39.5978 -77.4747 21° North 197 227 16,500 840 Climbing New York Center
10:36PM 39.6594 -77.4536 15° North 197 227 17,000 300 Climbing New York Center
10:37PM 39.7219 -77.4517 North 225 259 17,100  Climbing New York Center
10:38PM 39.8019 -77.4403 North 256 295 17,000  Descending New York Center
10:39PM 39.8625 -77.4028 25° Northeast 264 304 17,100  Climbing New York Center
10:40PM 39.9378 -77.3583 24° Northeast 272 313 17,000 -60 Descending New York Center
10:41PM 40.0006 -77.3208 25° Northeast 266 306 17,000  Level New York Center
10:42PM 40.0758 -77.2764 24° Northeast 261 300 17,000  Level New York Center
10:43PM 40.1361 -77.2442 22° Northeast 261 300 17,000  Level New York Center
10:44PM 40.2114 -77.1994 24° Northeast 261 300 17,000  Level New York Center
10:45PM 40.2717 -77.1642 24° Northeast 261 300 17,000  Level New York Center
10:46PM 40.3472 -77.1194 24° Northeast 261 300 17,000  Level New York Center
10:47PM 40.4075 -77.0839 24° Northeast 261 300 17,000  Level New York Center
10:48PM 40.4828 -77.0389 24° Northeast 261 300 17,000  Level New York Center
10:49PM 40.5514 -77.0017 22° Northeast 261 300 17,000  Level New York Center
10:50PM 40.6203 -76.9586 25° Northeast 268 308 17,000 -60 Level New York Center
10:51PM 40.6872 -76.9181 25° Northeast 262 302 16,900 -60 Descending New York Center
10:52PM 40.7539 -76.8775 25° Northeast 262 302 16,900  Level New York Center
10:53PM 40.8225 -76.8369 24° Northeast 262 302 16,900  Level New York Center
10:54PM 40.8828 -76.8011 24° Northeast 262 302 16,900  Level New York Center
10:55PM 40.9558 -76.7556 25° Northeast 262 302 16,900  Level New York Center
10:56PM 41.0225 -76.7144 25° Northeast 257 296 16,900  Level New York Center
10:57PM 41.0892 -76.6764 23° Northeast 257 296 16,900  Level New York Center
10:58PM 41.1603 -76.6300 26° Northeast 266 306 16,900  Level New York Center
10:59PM 41.2203 -76.5939 24° Northeast 266 306 16,900  Level New York Center
11:00PM 41.2869 -76.5528 25° Northeast 266 306 16,900  Level New York Center
11:01PM 41.3619 -76.5067 25° Northeast 261 300 17,000  Climbing New York Center
11:02PM 41.4283 -76.4681 24° Northeast 261 300 17,000  Level New York Center
11:03PM 41.4950 -76.4267 25° Northeast 261 300 17,000 -600 Level New York Center
11:04PM 41.5572 -76.3875 25° Northeast 266 306 15,900 -1,260 Descending New York Center
11:05PM 41.6344 -76.3411 24° Northeast 279 321 14,500 -1,560 Descending New York Center
11:06PM 41.7161 -76.2897 25° Northeast 290 334 12,800 -1,620 Descending New York Center
11:07PM 41.7928 -76.2514 20° North 285 328 11,300 -1,500 Descending New York Center
11:08PM 41.8669 -76.2214 17° North 278 320 9,800 -1,500 Descending New York Center
11:09PM 41.9328 -76.1933 18° North 272 313 8,400 -1,500 Descending New York Center
11:10PM 42.0114 -76.1581 18° North 272 313 6,900 -1,380 Descending New York Center
11:11PM 42.0772 -76.1297 18° North 272 313 5,600 -1,440 Descending New York Center
11:12PM 42.1472 -76.0992 18° North 272 313 4,100 -1,020 Descending New York Center
11:13PM 42.2067 -76.0758 16° North 254 292 3,700 -540 Descending New York Center
11:14PM 42.2469 -76.0594 17° North 201 231 3,100 -660 Descending New York Center
11:15PM 42.2428 -76.0144 97° East 133 153 2,300 -540 Descending New York Center
11:16PM 42.2467 -75.9700 83° East 88 101 2,000 2,820 Descending New York Center
11:17PM 42.2544 -75.9342 74° East 88 101 8,000 3,000 Climbing New York Center
11:18PM 42.2600 -75.9008 77° East 88 101 8,000  Level New York Center
11:20PM 42.2000 -75.9667 180° South  Level FlightAware Approximate
11:27PM 42.2084 -75.9796 180° South  Level Estimated